createdAt,value
2023-01-05T00:00:00.000Z,4.08
2023-01-05T00:15:00.000Z,4.54
2023-01-05T00:30:00.000Z,2.73
2023-01-05T00:45:00.000Z,2.32
2023-01-05T01:00:00.000Z,3.77
2023-01-05T01:15:00.000Z,3.33
2023-01-05T01:30:00.000Z,3.68
2023-01-05T01:45:00.000Z,4.78
2023-01-05T02:00:00.000Z,3.45
2023-01-05T02:15:00.000Z,3.59
2023-01-05T02:30:00.000Z,3.34
2023-01-05T02:45:00.000Z,3.26
2023-01-05T03:00:00.000Z,3.27
2023-01-05T03:15:00.000Z,3.33
2023-01-05T03:30:00.000Z,3.35
2023-01-05T03:45:00.000Z,3.22
2023-01-05T04:00:00.000Z,3.49
2023-01-05T04:15:00.000Z,3.55
2023-01-05T04:30:00.000Z,4.24
2023-01-05T04:45:00.000Z,3.71
2023-01-05T05:00:00.000Z,4.92
2023-01-05T05:15:00.000Z,2.62
2023-01-05T05:30:00.000Z,3.14
2023-01-05T05:45:00.000Z,2.45
2023-01-05T06:00:00.000Z,8.59
2023-01-05T06:15:00.000Z,9.12
2023-01-05T06:30:00.000Z,1.89
2023-01-05T06:45:00.000Z,1.89
2023-01-05T07:00:00.000Z,1.16
2023-01-05T07:15:00.000Z,1.16
2023-01-05T07:30:00.000Z,1.16
2023-01-05T07:45:00.000Z,1.26
2023-01-05T08:00:00.000Z,1.18
2023-01-05T08:15:00.000Z,1.07
2023-01-05T08:30:00.000Z,2.85
2023-01-05T08:45:00.000Z,1.12
2023-01-05T09:00:00.000Z,1.09
2023-01-05T09:15:00.000Z,1.09
2023-01-05T09:30:00.000Z,1.08
2023-01-05T09:45:00.000Z,1.16
2023-01-05T10:00:00.000Z,1.04
2023-01-05T10:15:00.000Z,1.14
2023-01-05T10:30:00.000Z,1.31
2023-01-05T10:45:00.000Z,1.59
2023-01-05T11:00:00.000Z,1.21
2023-01-05T11:15:00.000Z,1.11
2023-01-05T11:30:00.000Z,1.12
2023-01-05T11:45:00.000Z,1.39
2023-01-05T12:00:00.000Z,1.12
2023-01-05T12:30:00.000Z,1.8
2023-01-05T12:45:00.000Z,1.81
2023-01-05T13:00:00.000Z,1.74
2023-01-05T13:15:00.000Z,2.04
2023-01-05T13:30:00.000Z,1.32
2023-01-05T13:45:00.000Z,1.88
2023-01-05T14:00:00.000Z,2.55
2023-01-05T14:15:00.000Z,3.49
2023-01-05T14:30:00.000Z,2.53
2023-01-05T14:45:00.000Z,1.39
2023-01-05T15:00:00.000Z,3.38
2023-01-05T15:15:00.000Z,2.6
2023-01-05T15:30:00.000Z,9.34
2023-01-05T15:45:00.000Z,8.8
2023-01-05T16:00:00.000Z,6
2023-01-05T16:15:00.000Z,6.69
2023-01-05T16:30:00.000Z,4.01
2023-01-05T16:45:00.000Z,4.44
2023-01-05T17:00:00.000Z,3.27
2023-01-05T17:15:00.000Z,3.48
2023-01-05T17:30:00.000Z,3.85
2023-01-05T17:45:00.000Z,4.8
2023-01-05T18:00:00.000Z,4.45
2023-01-05T18:15:00.000Z,6.01
2023-01-05T18:30:00.000Z,6.62
2023-01-05T18:45:00.000Z,7.09
2023-01-05T19:00:00.000Z,7.27
2023-01-05T19:15:00.000Z,9.56
2023-01-05T19:30:00.000Z,8.1
2023-01-05T19:45:00.000Z,6.76
2023-01-05T20:00:00.000Z,6.46
2023-01-05T20:15:00.000Z,6.3
2023-01-05T20:30:00.000Z,6.11
2023-01-05T20:45:00.000Z,7.44
2023-01-05T21:00:00.000Z,7.31
2023-01-05T21:15:00.000Z,5.86
2023-01-05T21:30:00.000Z,5.66
2023-01-05T21:45:00.000Z,5.55
2023-01-05T22:00:00.000Z,6.41
2023-01-05T22:15:00.000Z,6.26
2023-01-05T22:30:00.000Z,7.6
2023-01-05T22:45:00.000Z,7.13
2023-01-05T23:00:00.000Z,8.52
2023-01-05T23:15:00.000Z,7.66
2023-01-05T23:30:00.000Z,9
2023-01-05T23:45:00.000Z,9.04
